WetterOnline ( https://www.wetteronline.ch )

Wetter aktuell Schkeuditz

Aktuelles Wetter: Leipzig/Halle (136m)

6-stündlich | Neueste Meldungen
Ortszeit Temperatur Wetter
Mo, 13.07. 8:00 16.2° C fast wolkenlos
Mo, 13.07. 2:00 11.6° C leicht bewölkt
So, 12.07. 20:00 20.3° C fast wolkenlos
So, 12.07. 14:00 20.6° C wolkig
So, 12.07. 8:00 13.8° C leicht bewölkt
So, 12.07. 2:00 9.8° C leicht bewölkt
Sa, 11.07. 20:00 18.7° C bewölkt
Sa, 11.07. 14:00 19.3° C wolkig
Ortszeit Temperatur Wetter
Mo, 13.07. 10:50 22° C -
Mo, 13.07. 10:30 20.5° C wolkenlos
Mo, 13.07. 10:20 20.5° C wolkenlos
Mo, 13.07. 10:10 20.3° C wolkenlos
Mo, 13.07. 10:00 19.6° C fast wolkenlos
Mo, 13.07. 9:50 19.6° C leicht bewölkt
Mo, 13.07. 9:30 19.4° C leicht bewölkt
Mo, 13.07. 9:00 18.0° C leicht bewölkt
Mo, 13.07. 8:30 17.2° C wolkig
Mo, 13.07. 8:00 16.2° C fast wolkenlos
Mo, 13.07. 7:30 14.7° C wolkenlos
Ortszeit Relative Feuchte Sichtweite
Mo, 13.07. 8:00 53% 60 km
Mo, 13.07. 2:00 68% >70 km
So, 12.07. 20:00 37% >70 km
So, 12.07. 14:00 39% 65 km
So, 12.07. 8:00 70% 60 km
So, 12.07. 2:00 82% 70 km
Sa, 11.07. 20:00 44% >70 km
Sa, 11.07. 14:00 42% >70 km
Ortszeit Relative Feuchte Sichtweite
Mo, 13.07. 10:50 35% >10 km
Mo, 13.07. 10:30 38% 65 km
Mo, 13.07. 10:20 38% -
Mo, 13.07. 10:10 38% -
Mo, 13.07. 10:00 41% 60 km
Mo, 13.07. 9:50 41% -
Mo, 13.07. 9:30 42% 50 km
Mo, 13.07. 9:00 46% 60 km
Mo, 13.07. 8:30 49% 50 km
Mo, 13.07. 8:00 53% 60 km
Mo, 13.07. 7:30 60% >70 km
Ortszeit Niederschlagsmenge Niederschlagsart
Mo, 13.07. 8:00 0.0 l/m2 in 12 Std. -
Mo, 13.07. 2:00 0.0 l/m2 in 6 Std. -
So, 12.07. 20:00 0.0 l/m2 in 12 Std. -
So, 12.07. 14:00 0.0 l/m2 in 6 Std. -
So, 12.07. 8:00 0.0 l/m2 in 12 Std. -
So, 12.07. 2:00 0.0 l/m2 in 6 Std. -
Sa, 11.07. 20:00 0.0 l/m2 in 12 Std. -
Sa, 11.07. 14:00 0.0 l/m2 in 6 Std. -
Ortszeit Niederschlagsmenge Niederschlagsart
Mo, 13.07. 10:50 keine Meldung -
Mo, 13.07. 10:30 0.0 l/m2 in 1 Std. -
Mo, 13.07. 10:20 keine Meldung -
Mo, 13.07. 10:10 keine Meldung -
Mo, 13.07. 10:00 0.0 l/m2 in 1 Std. -
Mo, 13.07. 9:50 keine Meldung -
Mo, 13.07. 9:30 0.0 l/m2 in 1 Std. -
Mo, 13.07. 9:00 0.0 l/m2 in 1 Std. -
Mo, 13.07. 8:30 0.0 l/m2 in 1 Std. -
Mo, 13.07. 8:00 0.0 l/m2 in 1 Std. -
Mo, 13.07. 7:30 0.0 l/m2 in 1 Std. -
Ortszeit Stärke Spitze Richtung
km/h Bft. km/h Grad Sektor
Mo, 13.07. 8:00 6 1 9 170° S
Mo, 13.07. 2:00 7 2 18 70° O
So, 12.07. 20:00 7 2 28 350° N
So, 12.07. 14:00 13 3 22 360° N
So, 12.07. 8:00 6 1 9 360° N
So, 12.07. 2:00 4 1 29 270° W
Sa, 11.07. 20:00 7 2 28 290° W
Sa, 11.07. 14:00 15 3 31 340° N
Ortszeit Stärke Spitze Richtung
km/h Bft. km/h Grad Sektor
Mo, 13.07. 10:50 7 2 - uml. uml.
Mo, 13.07. 10:30 7 2 17 60° NO
Mo, 13.07. 10:20 7 2 - 60° NO
Mo, 13.07. 10:10 7 2 - 80° O
Mo, 13.07. 10:00 7 2 14 130° SO
Mo, 13.07. 9:50 7 2 - 130° SO
Mo, 13.07. 9:30 4 1 11 180° S
Mo, 13.07. 9:00 7 2 14 140° SO
Mo, 13.07. 8:30 6 1 9 130° SO
Mo, 13.07. 8:00 6 1 9 170° S
Mo, 13.07. 7:30 4 1 7 210° SW
Ortszeit Untergrenze Bedeckung Gattung
total tief tief mittel hoch
Mo, 13.07. 8:00 10500 m 1/8 0/8 - - Ci
Mo, 13.07. 2:00 10500 m 5/8 0/8 - - Ci
So, 12.07. 20:00 1800 m 2/8 1/8 Cu Ac -
So, 12.07. 14:00 1800 m 5/8 3/8 Cu Ac -
So, 12.07. 8:00 1800 m 3/8 1/8 Cu Ac -
So, 12.07. 2:00 1800 m 4/8 4/8 Sc - -
Sa, 11.07. 20:00 1500 m 7/8 1/8 Cu As -
Sa, 11.07. 14:00 1500 m 5/8 2/8 Cu Ac -
Ortszeit Bedeckungsgrad in Achtel und Wolkenuntergrenze
Mo, 13.07. 10:50 keine Wolken(unter 1500 m)
Mo, 13.07. 10:30 keine Wolken
Mo, 13.07. 10:20 keine Wolken
Mo, 13.07. 10:10 keine Wolken
Mo, 13.07. 10:00 1(1500m)
Mo, 13.07. 9:50 3(10500m)
Mo, 13.07. 9:30 4(10500m)
Mo, 13.07. 9:00 2(9000m)
Mo, 13.07. 8:30 8(10500m)
Mo, 13.07. 8:00 1(10500m)
Mo, 13.07. 7:30 keine Wolken
Ortszeit Luftdruck NN (hPa) Tendenz (hPa in 3 Std.)
Mo, 13.07. 8:00 1026 - 0,2
Mo, 13.07. 2:00 1027 0,0
So, 12.07. 20:00 1026 - 0,4
So, 12.07. 14:00 1027 - 0,5
So, 12.07. 8:00 1027 + 1,2
So, 12.07. 2:00 1026 + 0,6
Sa, 11.07. 20:00 1024 + 0,7
Sa, 11.07. 14:00 1023 + 0,4
Ortszeit Luftdruck NN (hPa) Tendenz (hPa in 3 Std.)
Mo, 13.07. 10:50 1025 keine Meldung
Mo, 13.07. 10:30 1025 - 0,7
Mo, 13.07. 10:20 1025 keine Meldung
Mo, 13.07. 10:10 1025 keine Meldung
Mo, 13.07. 10:00 1025 - 0,5
Mo, 13.07. 9:50 1025 keine Meldung
Mo, 13.07. 9:30 1025 - 0,4
Mo, 13.07. 9:00 1026 - 0,4
Mo, 13.07. 8:30 1026 - 0,2
Mo, 13.07. 8:00 1026 - 0,2
Mo, 13.07. 7:30 1026 - 0,3
Ortszeit Schneehöhe (cm)
Mo, 13.07. 8:00 0
Mo, 13.07. 2:00 0
So, 12.07. 20:00 0
So, 12.07. 14:00 0
So, 12.07. 8:00 0
So, 12.07. 2:00 0
Sa, 11.07. 20:00 0
Sa, 11.07. 14:00 0
Ortszeit Schneehöhe (cm)
Mo, 13.07. 10:50 -
Mo, 13.07. 10:30 -
Mo, 13.07. 10:20 -
Mo, 13.07. 10:10 -
Mo, 13.07. 10:00 -
Mo, 13.07. 9:50 -
Mo, 13.07. 9:30 -
Mo, 13.07. 9:00 -
Mo, 13.07. 8:30 -
Mo, 13.07. 8:00 0
Mo, 13.07. 7:30 -
Link zu dieser Seite / Seite empfehlen

Das Wetter in ...